| time (UTC) | temp F | wind direction | speed knots | gust knots | rain 1hr in | rain 24hr in | rain mn in | humidity % | barometer mb |
| 20260503184554 | 67 | 232 | 4.3 | 11.3 | 0.00 | 0.00 | 0.00 | 44 | 1002.9 |
| 20260503183055 | 66 | 231 | 4.3 | 10.4 | 0.00 | 0.00 | 0.00 | 43 | 1003.1 |
| 20260503181603 | 66 | 223 | 5.2 | 9.6 | 0.00 | 0.00 | 0.00 | 44 | 1003.3 |
| 20260503180106 | 66 | 277 | 4.3 | 9.6 | 0.00 | 0.00 | 0.00 | 46 | 1003.5 |
| 20260503174556 | 65 | 240 | 2.6 | 13.0 | 0.00 | 0.00 | 0.00 | 45 | 1003.7 |
| 20260503173059 | 64 | 238 | 2.6 | 13.0 | 0.00 | 0.00 | 0.00 | 48 | 1003.9 |
| 20260503171553 | 64 | 270 | 2.6 | 10.4 | 0.00 | 0.00 | 0.00 | 47 | 1003.9 |
| 20260503130103 | 50 | 0 | 0.9 | 3.5 | 0.00 | 0.00 | 0.00 | 65 | 1005.8 |
| 20260503081554 | 49 | 212 | 0.9 | 2.6 | 0.00 | 0.00 | 0.00 | 71 | 1007.8 |
| 20260503071604 | 48 | 214 | 2.6 | 5.2 | 0.00 | 0.00 | 0.00 | 62 | 1008.1 |
| 20260503060108 | 49 | 0 | 0.0 | 2.6 | 0.00 | 0.00 | 0.00 | 62 | 1008.7 |
| 20260503054556 | 48 | 0 | 0.0 | 3.5 | 0.00 | 0.00 | 0.00 | 61 | 1008.8 |
| 20260503053053 | 48 | 228 | 0.0 | 3.5 | 0.00 | 0.00 | 0.00 | 63 | 1008.9 |
| 20260503051552 | 47 | 0 | 0.0 | 1.7 | 0.00 | 0.00 | 0.00 | 65 | 1009.0 |
| 20260503050055 | 47 | 235 | 0.0 | 0.0 | 0.00 | 0.00 | 0.00 | 68 | 1009.2 |
| 20260503044605 | 47 | 0 | 0.0 | 0.0 | 0.00 | 0.00 | 0.00 | 69 | 1009.2 |
| 20260503043057 | 48 | 0 | 0.0 | 0.0 | 0.00 | 0.00 | 0.00 | 65 | 1009.4 |
| 20260503041553 | 48 | 0 | 0.0 | 0.0 | 0.00 | 0.00 | 0.00 | 64 | 1009.6 |
| 20260503040100 | 49 | 0 | 0.0 | 0.0 | 0.00 | 0.00 | 0.00 | 60 | 1009.8 |
| 20260503034556 | 49 | 0 | 0.0 | 0.9 | 0.00 | 0.00 | 0.00 | 61 | 1009.9 |
| 20260503033107 | 50 | 0 | 0.0 | 0.9 | 0.00 | 0.00 | 0.00 | 60 | 1010.2 |
| 20260503031604 | 50 | 0 | 0.0 | 0.9 | 0.00 | 0.00 | 0.00 | 58 | 1010.4 |
| 20260503030056 | 51 | 0 | 0.0 | 0.9 | 0.00 | 0.00 | 0.00 | 57 | 1010.7 |
| 20260503024604 | 51 | 0 | 0.0 | 0.9 | 0.00 | 0.00 | 0.00 | 55 | 1010.8 |
| 20260503023102 | 50 | 0 | 0.0 | 0.9 | 0.00 | 0.00 | 0.00 | 55 | 1010.9 |
| 20260503021607 | 50 | 266 | 0.0 | 1.7 | 0.00 | 0.00 | 0.00 | 54 | 1010.9 |
| 20260503020109 | 51 | 262 | 0.0 | 2.6 | 0.00 | 0.00 | 0.00 | 53 | 1011.0 |
| 20260503014602 | 52 | 0 | 0.0 | 2.6 | 0.00 | 0.00 | 0.00 | 52 | 1011.2 |
| 20260503013106 | 52 | 0 | 0.0 | 1.7 | 0.00 | 0.00 | 0.00 | 50 | 1011.1 |
| 20260503011604 | 53 | 259 | 0.9 | 3.5 | 0.00 | 0.00 | 0.00 | 48 | 1011.1 |
| 20260503010058 | 53 | 0 | 0.0 | 1.7 | 0.00 | 0.00 | 0.00 | 47 | 1011.1 |
| 20260503004552 | 54 | 0 | 0.9 | 3.5 | 0.00 | 0.00 | 0.00 | 45 | 1011.0 |
| 20260503003105 | 55 | 233 | 0.9 | 5.2 | 0.00 | 0.00 | 0.00 | 41 | 1011.1 |
| 20260503001619 | 56 | 273 | 0.9 | 5.2 | 0.00 | 0.00 | 0.00 | 40 | 1011.2 |
| 20260503000121 | 56 | 255 | 0.9 | 6.1 | 0.00 | 0.00 | 0.00 | 39 | 1011.3 |
| 20260502234605 | 57 | 250 | 2.6 | 7.8 | 0.00 | 0.00 | 0.00 | 37 | 1011.3 |
| 20260502233100 | 58 | 255 | 1.7 | 6.1 | 0.00 | 0.00 | 0.00 | 38 | 1011.4 |
| 20260502231559 | 58 | 219 | 5.2 | 10.4 | 0.00 | 0.00 | 0.00 | 33 | 1011.4 |
| 20260502230055 | 60 | 290 | 1.7 | 8.7 | 0.00 | 0.00 | 0.00 | 34 | 1011.4 |
| 20260502224555 | 60 | 306 | 1.7 | 8.7 | 0.00 | 0.00 | 0.00 | 35 | 1011.5 |
| 20260502223055 | 59 | 298 | 1.7 | 8.7 | 0.00 | 0.00 | 0.00 | 35 | 1011.7 |
| 20260502221553 | 58 | 217 | 3.5 | 11.3 | 0.00 | 0.00 | 0.00 | 34 | 1011.8 |
| 20260502220056 | 59 | 204 | 3.5 | 10.4 | 0.00 | 0.00 | 0.00 | 32 | 1011.8 |
| 20260502214555 | 59 | 246 | 1.7 | 7.8 | 0.00 | 0.00 | 0.00 | 34 | 1011.9 |
| 20260502213059 | 59 | 260 | 4.3 | 9.6 | 0.00 | 0.00 | 0.00 | 31 | 1011.9 |
| 20260502211558 | 59 | 313 | 3.5 | 8.7 | 0.00 | 0.00 | 0.00 | 35 | 1012.1 |
| 20260502210057 | 59 | 298 | 4.3 | 10.4 | 0.00 | 0.00 | 0.00 | 35 | 1012.3 |
| 20260502204612 | 59 | 240 | 2.6 | 10.4 | 0.00 | 0.00 | 0.00 | 37 | 1012.4 |
| 20260502203059 | 58 | 245 | 4.3 | 13.0 | 0.00 | 0.00 | 0.00 | 33 | 1012.7 |
| 20260502201559 | 59 | 283 | 3.5 | 11.3 | 0.00 | 0.00 | 0.00 | 32 | 1012.8 |
| 20260502200057 | 58 | 238 | 4.3 | 8.7 | 0.00 | 0.00 | 0.00 | 32 | 1013.1 |
| 20260502194556 | 57 | 234 | 2.6 | 6.1 | 0.00 | 0.00 | 0.00 | 35 | 1013.4 |
| 20260502193057 | 58 | 290 | 3.5 | 13.0 | 0.00 | 0.00 | 0.00 | 33 | 1013.6 |
| 20260502191602 | 57 | 198 | 4.3 | 10.4 | 0.00 | 0.00 | 0.00 | 33 | 1013.8 |
| 20260502190056 | 56 | 243 | 4.3 | 9.6 | 0.00 | 0.00 | 0.00 | 31 | 1014.0 |